Terminal Aerodrome Forecast
Issued by NWS Pocatello, ID

Home | Current Version | Previous Version | Text Only | Print | Product List | Glossary On
Versions: 1 2 3 4 5 6 7 8 9 10 11 12 13 14 15 16 17 18 19 20 21 22 23 24 25 26 27 28 29 30
000
FTUS45 KPIH 241525 AAB
TAFIDA
TAF AMD
KIDA 241525Z 2415/2512 32011KT 1SM -SN BR SCT009 OVC015
     FM241700 29011KT 6SM -SN SCT009 OVC015
     FM242300 31009KT P6SM VCSH SCT015 OVC025
     FM250600 VRB06KT 6SM BR SCT008 OVC013=

USA.gov is the U.S. government's official web portal to all federal, state and local government web resources and services.